Time;durP1;ratioP1;P1;durP2;ratioP2;P2;SDS_P1;SDS_P2;PMS_P1;PMS_P2;Temp;Humidity;BMP_temperature;BMP_pressure;BME280_temperature;BME280_humidity;BME280_pressure;Samples;Min_cycle;Max_cycle;Signal;HPM_P1;HPM_P2
2022/01/31 00:01:26;;;;;;;;;;;21.80;47.90;;;;;;5113539;28;20019;-39
2022/01/31 00:03:53;;;;;;;;;;;21.80;47.90;;;;;;5113608;28;20006;-43
2022/01/31 00:06:21;;;;;;;;;;;21.90;47.90;;;;;;5130394;28;20332;-40
2022/01/31 00:08:50;;;;;;;;;;;21.90;47.90;;;;;;5134180;28;19976;-42
2022/01/31 00:11:17;;;;;;;;;;;21.80;47.90;;;;;;5132716;28;20379;-41
2022/01/31 00:13:54;;;;;;;;;;;21.80;47.90;;;;;;5136253;27;19984;-40
2022/01/31 00:16:25;;;;;;;;;;;21.80;47.90;;;;;;5137793;27;19923;-40
2022/01/31 00:18:52;;;;;;;;;;;21.80;47.90;;;;;;5138279;27;19927;-42
2022/01/31 00:21:19;;;;;;;;;;;21.80;47.90;;;;;;5137200;27;20014;-40
2022/01/31 00:23:46;;;;;;;;;;;21.80;47.80;;;;;;5137445;27;19992;-41
2022/01/31 00:26:13;;;;;;;;;;;21.80;47.90;;;;;;5136245;27;19937;-43
2022/01/31 00:28:40;;;;;;;;;;;21.80;47.80;;;;;;5119354;27;20132;-42
2022/01/31 00:31:07;;;;;;;;;;;21.80;47.80;;;;;;5137180;27;19923;-40
2022/01/31 00:33:34;;;;;;;;;;;21.80;47.80;;;;;;5137135;27;19930;-40
2022/01/31 00:36:01;;;;;;;;;;;21.80;47.80;;;;;;5137423;27;20399;-40
2022/01/31 00:38:28;;;;;;;;;;;21.80;47.80;;;;;;5137319;27;19928;-41
2022/01/31 00:40:55;;;;;;;;;;;21.80;47.80;;;;;;5136279;27;19931;-43
2022/01/31 00:43:22;;;;;;;;;;;21.80;47.80;;;;;;5137183;27;19923;-40
2022/01/31 00:46:01;;;;;;;;;;;21.80;47.90;;;;;;5136891;27;20026;-40
2022/01/31 00:48:30;;;;;;;;;;;21.80;47.80;;;;;;5136922;27;20442;-42
2022/01/31 00:50:57;;;;;;;;;;;21.80;47.80;;;;;;5136821;27;20375;-46
2022/01/31 00:53:24;;;;;;;;;;;21.80;47.80;;;;;;5136583;27;19949;-43
2022/01/31 00:55:51;;;;;;;;;;;21.80;47.80;;;;;;5136113;27;19924;-43
2022/01/31 00:58:18;;;;;;;;;;;21.80;47.80;;;;;;5136557;27;19923;-41
2022/01/31 01:00:46;;;;;;;;;;;21.80;47.80;;;;;;5118651;27;20259;-41
2022/01/31 01:03:13;;;;;;;;;;;21.80;47.80;;;;;;5118710;27;20259;-40
2022/01/31 01:05:40;;;;;;;;;;;21.80;47.80;;;;;;5125393;27;19973;-44
2022/01/31 01:08:07;;;;;;;;;;;21.80;47.80;;;;;;5115933;28;19924;-45
2022/01/31 01:10:34;;;;;;;;;;;21.80;47.80;;;;;;5116182;28;19924;-39
2022/01/31 01:13:01;;;;;;;;;;;21.80;47.80;;;;;;5132536;27;20389;-40
2022/01/31 01:15:28;;;;;;;;;;;21.80;47.80;;;;;;5136309;27;19927;-40
2022/01/31 01:17:55;;;;;;;;;;;21.80;47.80;;;;;;5136604;27;19974;-41
2022/01/31 01:20:23;;;;;;;;;;;21.80;47.80;;;;;;5136179;27;20363;-42
2022/01/31 01:22:50;;;;;;;;;;;21.70;47.70;;;;;;5136258;27;19971;-42
2022/01/31 01:25:17;;;;;;;;;;;21.80;47.80;;;;;;5135242;27;19974;-39
2022/01/31 01:27:47;;;;;;;;;;;21.80;47.80;;;;;;5135225;27;19969;-43
2022/01/31 01:30:15;;;;;;;;;;;21.80;47.80;;;;;;5136228;27;20329;-41
2022/01/31 01:33:07;;;;;;;;;;;21.80;47.80;;;;;;5135973;27;20436;-45
2022/01/31 01:35:34;;;;;;;;;;;21.80;47.80;;;;;;5135857;27;20026;-40
2022/01/31 01:38:06;;;;;;;;;;;21.80;47.80;;;;;;5135835;27;19962;-41
2022/01/31 01:40:34;;;;;;;;;;;21.80;47.80;;;;;;5136176;27;19923;-41
2022/01/31 01:43:01;;;;;;;;;;;21.80;47.70;;;;;;5134543;27;19927;-42
2022/01/31 01:45:28;;;;;;;;;;;21.80;47.70;;;;;;5135699;27;19927;-40
2022/01/31 01:47:55;;;;;;;;;;;21.80;47.70;;;;;;5135981;27;19969;-42
2022/01/31 01:50:22;;;;;;;;;;;21.80;47.70;;;;;;5135613;27;20370;-40
2022/01/31 01:52:51;;;;;;;;;;;21.80;47.70;;;;;;5135361;27;20006;-40
2022/01/31 01:55:19;;;;;;;;;;;21.70;47.70;;;;;;5135516;27;19927;-43
2022/01/31 01:57:46;;;;;;;;;;;21.80;47.70;;;;;;5134670;27;19963;-40
2022/01/31 02:00:18;;;;;;;;;;;21.70;47.60;;;;;;5135632;27;20350;-42
2022/01/31 02:02:46;;;;;;;;;;;21.70;47.60;;;;;;5135691;27;19976;-42
2022/01/31 02:05:13;;;;;;;;;;;21.70;47.60;;;;;;5127973;27;19969;-42
2022/01/31 02:07:41;;;;;;;;;;;21.70;47.60;;;;;;5114760;28;20459;-41
2022/01/31 02:10:08;;;;;;;;;;;21.70;47.60;;;;;;5096970;28;19924;-40
2022/01/31 02:12:42;;;;;;;;;;;21.70;47.70;;;;;;5122486;27;19923;-45
2022/01/31 02:15:10;;;;;;;;;;;21.70;47.60;;;;;;5135160;27;19924;-41
2022/01/31 02:17:37;;;;;;;;;;;21.70;47.60;;;;;;5135126;27;19949;-42
2022/01/31 02:20:06;;;;;;;;;;;21.70;47.60;;;;;;5134871;27;19923;-40
2022/01/31 02:22:33;;;;;;;;;;;21.70;47.60;;;;;;5134850;27;19969;-41
2022/01/31 02:25:03;;;;;;;;;;;21.70;47.60;;;;;;5134219;27;21345;-41
2022/01/31 02:27:31;;;;;;;;;;;21.70;47.60;;;;;;5134089;27;20006;-40
2022/01/31 02:29:59;;;;;;;;;;;21.70;47.60;;;;;;5134787;27;19972;-41
2022/01/31 02:32:26;;;;;;;;;;;21.70;47.50;;;;;;5134868;27;19924;-40
2022/01/31 02:34:53;;;;;;;;;;;21.70;47.60;;;;;;5134813;27;20428;-45
2022/01/31 02:37:20;;;;;;;;;;;21.70;47.60;;;;;;5134644;27;19927;-43
2022/01/31 02:39:47;;;;;;;;;;;21.70;47.60;;;;;;5135088;27;19924;-42
2022/01/31 02:42:14;;;;;;;;;;;21.70;47.60;;;;;;5134026;27;20365;-41
2022/01/31 02:44:41;;;;;;;;;;;21.70;47.60;;;;;;5134662;27;20022;-45
2022/01/31 02:47:16;;;;;;;;;;;21.70;47.60;;;;;;5134678;27;20443;-43
2022/01/31 02:49:55;;;;;;;;;;;21.70;47.60;;;;;;5134670;27;19948;-41
2022/01/31 02:52:25;;;;;;;;;;;21.70;47.60;;;;;;5134458;27;20413;-41
2022/01/31 02:54:52;;;;;;;;;;;21.70;47.60;;;;;;5134611;27;19924;-42
2022/01/31 02:57:19;;;;;;;;;;;21.70;47.60;;;;;;5133832;27;19958;-44
2022/01/31 02:59:46;;;;;;;;;;;21.70;47.60;;;;;;5134701;28;20031;-42
2022/01/31 03:02:14;;;;;;;;;;;21.70;47.60;;;;;;5135351;28;19963;-42
2022/01/31 03:04:41;;;;;;;;;;;21.70;47.60;;;;;;5132268;28;19924;-40
2022/01/31 03:07:09;;;;;;;;;;;21.70;47.60;;;;;;5113903;28;19938;-41
2022/01/31 03:09:35;;;;;;;;;;;21.70;47.60;;;;;;5113858;28;19974;-44
2022/01/31 03:12:03;;;;;;;;;;;21.70;47.50;;;;;;5113857;28;19978;-44
2022/01/31 03:14:31;;;;;;;;;;;21.70;47.60;;;;;;5132053;28;19969;-42
2022/01/31 03:17:02;;;;;;;;;;;21.70;47.60;;;;;;5134334;28;19927;-40
2022/01/31 03:19:30;;;;;;;;;;;21.70;47.50;;;;;;5134174;28;19924;-42
2022/01/31 03:21:57;;;;;;;;;;;21.70;47.60;;;;;;5134159;28;19949;-40
2022/01/31 03:24:24;;;;;;;;;;;21.70;47.60;;;;;;5134521;28;20456;-41
2022/01/31 03:26:51;;;;;;;;;;;21.70;47.60;;;;;;5134509;28;19998;-41
2022/01/31 03:29:18;;;;;;;;;;;21.70;47.60;;;;;;5133339;28;19976;-40
2022/01/31 03:31:45;;;;;;;;;;;21.70;47.60;;;;;;5134112;28;19923;-41
2022/01/31 03:34:12;;;;;;;;;;;21.70;47.60;;;;;;5134201;28;19978;-43
2022/01/31 03:36:39;;;;;;;;;;;21.70;47.60;;;;;;5134132;28;20022;-43
2022/01/31 03:39:05;;;;;;;;;;;21.70;47.60;;;;;;5135261;28;19923;-41
2022/01/31 03:41:32;;;;;;;;;;;21.70;47.60;;;;;;5134092;28;19930;-42
2022/01/31 03:43:59;;;;;;;;;;;21.60;47.50;;;;;;5133217;28;20387;-40
2022/01/31 03:46:26;;;;;;;;;;;21.60;47.50;;;;;;5134087;28;19949;-40
2022/01/31 03:48:54;;;;;;;;;;;21.60;47.50;;;;;;5136978;27;19924;-43
2022/01/31 03:51:21;;;;;;;;;;;21.60;47.50;;;;;;5137855;27;19972;-41
2022/01/31 03:53:48;;;;;;;;;;;21.60;47.50;;;;;;5120046;27;20006;-40
2022/01/31 03:56:14;;;;;;;;;;;21.60;47.50;;;;;;5137843;27;19924;-42
2022/01/31 03:58:41;;;;;;;;;;;21.60;47.50;;;;;;5137102;27;19923;-41
2022/01/31 04:01:08;;;;;;;;;;;21.60;47.50;;;;;;5137659;27;19931;-41
2022/01/31 04:03:36;;;;;;;;;;;21.60;47.50;;;;;;5138456;27;19930;-41
2022/01/31 04:06:03;;;;;;;;;;;21.60;47.50;;;;;;5123559;27;19924;-41
2022/01/31 04:08:30;;;;;;;;;;;21.60;47.50;;;;;;5099032;28;20351;-41
2022/01/31 04:10:57;;;;;;;;;;;21.60;47.50;;;;;;5117356;28;19928;-41
2022/01/31 04:13:26;;;;;;;;;;;21.60;47.50;;;;;;5120872;27;19924;-41
2022/01/31 04:15:53;;;;;;;;;;;21.60;47.50;;;;;;5137803;27;19972;-39
2022/01/31 04:18:20;;;;;;;;;;;21.60;47.50;;;;;;5137708;27;20006;-40
2022/01/31 04:20:47;;;;;;;;;;;21.60;47.50;;;;;;5137220;27;19924;-41
2022/01/31 04:23:17;;;;;;;;;;;21.60;47.50;;;;;;5119018;27;20382;-42
2022/01/31 04:28:21;;;;;;;;;;;21.60;47.50;;;;;;5136577;27;19963;-40
2022/01/31 04:30:55;;;;;;;;;;;21.60;47.50;;;;;;5137187;27;19923;-43
2022/01/31 04:33:23;;;;;;;;;;;21.60;47.50;;;;;;5137544;27;19924;-43
2022/01/31 04:35:50;;;;;;;;;;;21.60;47.50;;;;;;5137372;27;19923;-40
2022/01/31 04:38:17;;;;;;;;;;;21.60;47.50;;;;;;5137114;27;19923;-41
2022/01/31 04:40:45;;;;;;;;;;;21.60;47.50;;;;;;5138158;27;19924;-43
2022/01/31 04:43:12;;;;;;;;;;;21.60;47.50;;;;;;5136672;27;19944;-42
2022/01/31 04:45:46;;;;;;;;;;;21.60;47.50;;;;;;5136605;27;19927;-42
2022/01/31 04:48:17;;;;;;;;;;;21.60;47.50;;;;;;5136884;27;20018;-41
2022/01/31 04:50:44;;;;;;;;;;;21.60;47.50;;;;;;5136805;27;19923;-43
2022/01/31 04:53:12;;;;;;;;;;;21.60;47.50;;;;;;5137026;27;20324;-47
2022/01/31 04:55:39;;;;;;;;;;;21.60;47.50;;;;;;5137048;27;19934;-41
2022/01/31 04:58:07;;;;;;;;;;;21.60;47.50;;;;;;5136695;27;19923;-43
2022/01/31 05:00:34;;;;;;;;;;;21.60;47.50;;;;;;5134195;27;19937;-44
2022/01/31 05:03:04;;;;;;;;;;;21.60;47.50;;;;;;5136609;27;19962;-44
2022/01/31 05:05:31;;;;;;;;;;;21.60;47.50;;;;;;5127367;27;20016;-44
2022/01/31 05:07:57;;;;;;;;;;;21.60;47.50;;;;;;5115917;28;19931;-42
2022/01/31 05:10:24;;;;;;;;;;;21.60;47.50;;;;;;5116181;28;19976;-42
2022/01/31 05:12:51;;;;;;;;;;;21.60;47.50;;;;;;5115826;28;20439;-42
2022/01/31 05:15:18;;;;;;;;;;;21.60;47.50;;;;;;5130566;27;20320;-41
2022/01/31 05:17:45;;;;;;;;;;;21.60;47.50;;;;;;5136298;27;19930;-41
2022/01/31 05:20:12;;;;;;;;;;;21.60;47.50;;;;;;5136071;27;19959;-43
2022/01/31 05:22:39;;;;;;;;;;;21.60;47.50;;;;;;5136327;27;19927;-41
2022/01/31 05:25:06;;;;;;;;;;;21.60;47.50;;;;;;5136065;27;19923;-42
2022/01/31 05:27:33;;;;;;;;;;;21.60;47.50;;;;;;5136418;27;20011;-41
2022/01/31 05:30:00;;;;;;;;;;;21.60;47.50;;;;;;5124280;27;19928;-42
2022/01/31 05:32:27;;;;;;;;;;;21.60;47.50;;;;;;5115603;28;20014;-42
2022/01/31 05:34:54;;;;;;;;;;;21.60;47.50;;;;;;5115427;28;20015;-41
2022/01/31 05:37:21;;;;;;;;;;;21.60;47.50;;;;;;5115371;28;20433;-43
2022/01/31 05:39:48;;;;;;;;;;;21.60;47.50;;;;;;5115616;28;20003;-42
2022/01/31 05:42:15;;;;;;;;;;;21.60;47.50;;;;;;5115573;28;20006;-41
2022/01/31 05:44:43;;;;;;;;;;;21.60;47.50;;;;;;5121781;27;19959;-42
2022/01/31 05:47:10;;;;;;;;;;;21.60;47.40;;;;;;5135663;27;20375;-41
2022/01/31 05:49:38;;;;;;;;;;;21.60;47.40;;;;;;5136007;27;19968;-43
2022/01/31 05:52:07;;;;;;;;;;;21.60;47.40;;;;;;5135766;27;19959;-43
2022/01/31 05:54:36;;;;;;;;;;;21.60;47.50;;;;;;5135885;27;19928;-42
2022/01/31 05:57:03;;;;;;;;;;;21.60;47.50;;;;;;5135837;27;19924;-44
2022/01/31 05:59:30;;;;;;;;;;;21.50;47.30;;;;;;5134339;27;19927;-42
2022/01/31 06:01:58;;;;;;;;;;;21.60;47.40;;;;;;5135428;27;19972;-41
2022/01/31 06:04:25;;;;;;;;;;;21.50;47.40;;;;;;5135106;27;20271;-41
2022/01/31 06:06:52;;;;;;;;;;;21.60;47.40;;;;;;5114781;28;19924;-44
2022/01/31 06:09:21;;;;;;;;;;;21.50;47.30;;;;;;5114744;28;20014;-41
2022/01/31 06:11:49;;;;;;;;;;;21.50;47.30;;;;;;5114629;28;19923;-41
2022/01/31 06:14:16;;;;;;;;;;;21.50;47.30;;;;;;5114886;27;20387;-43
2022/01/31 06:16:43;;;;;;;;;;;21.50;47.30;;;;;;5135284;27;20014;-43
2022/01/31 06:19:10;;;;;;;;;;;21.50;47.40;;;;;;5134911;27;19924;-40
2022/01/31 06:21:37;;;;;;;;;;;21.50;47.30;;;;;;5136062;27;19928;-43
2022/01/31 06:24:09;;;;;;;;;;;21.50;47.30;;;;;;5135188;27;19973;-41
2022/01/31 06:26:37;;;;;;;;;;;21.50;47.30;;;;;;5135305;27;19923;-45
2022/01/31 06:29:05;;;;;;;;;;;21.50;47.30;;;;;;5134963;27;19972;-44
2022/01/31 06:31:32;;;;;;;;;;;21.50;47.30;;;;;;5133607;27;20386;-41
2022/01/31 06:34:00;;;;;;;;;;;21.50;47.30;;;;;;5134749;27;19927;-44
2022/01/31 06:36:27;;;;;;;;;;;21.50;47.30;;;;;;5135012;27;19923;-43
2022/01/31 06:38:54;;;;;;;;;;;21.50;47.30;;;;;;5135036;27;19923;-40
2022/01/31 06:41:23;;;;;;;;;;;21.60;47.40;;;;;;5134680;27;19945;-42
2022/01/31 06:43:51;;;;;;;;;;;21.50;47.30;;;;;;5134564;27;19924;-46
2022/01/31 06:46:19;;;;;;;;;;;21.60;47.40;;;;;;5133765;27;19931;-41
2022/01/31 06:48:46;;;;;;;;;;;21.50;47.30;;;;;;5134644;27;19924;-41
2022/01/31 06:51:13;;;;;;;;;;;21.50;47.30;;;;;;5134593;27;19962;-45
2022/01/31 06:53:41;;;;;;;;;;;21.50;47.30;;;;;;5134550;27;19992;-40
2022/01/31 06:56:08;;;;;;;;;;;21.50;47.30;;;;;;5134704;27;20007;-41
2022/01/31 06:58:35;;;;;;;;;;;21.60;47.40;;;;;;5134801;27;19923;-41
2022/01/31 07:01:02;;;;;;;;;;;21.50;47.30;;;;;;5133524;27;19962;-42
2022/01/31 07:03:29;;;;;;;;;;;21.50;47.30;;;;;;5134309;27;20396;-43
2022/01/31 07:05:56;;;;;;;;;;;21.50;47.30;;;;;;5120906;28;19973;-41
2022/01/31 07:08:23;;;;;;;;;;;21.60;47.30;;;;;;5114191;28;19973;-41
2022/01/31 07:10:52;;;;;;;;;;;21.50;47.30;;;;;;5114141;28;20059;-40
2022/01/31 07:13:39;;;;;;;;;;;21.50;47.30;;;;;;5113762;28;19928;-40
2022/01/31 07:16:06;;;;;;;;;;;21.50;47.30;;;;;;5124447;28;20002;-42
2022/01/31 07:18:34;;;;;;;;;;;21.50;47.30;;;;;;5134307;28;19966;-43
2022/01/31 07:21:02;;;;;;;;;;;21.50;47.30;;;;;;5134183;28;19972;-41
2022/01/31 07:23:50;;;;;;;;;;;21.50;47.30;;;;;;5136458;27;19980;-41
2022/01/31 07:26:17;;;;;;;;;;;21.50;47.30;;;;;;5138760;27;19928;-41
2022/01/31 07:28:44;;;;;;;;;;;21.50;47.30;;;;;;5138387;27;19924;-41
2022/01/31 07:31:11;;;;;;;;;;;21.50;47.20;;;;;;5137477;27;20336;-41
2022/01/31 07:33:41;;;;;;;;;;;21.50;47.20;;;;;;5138584;27;19927;-41
2022/01/31 07:36:08;;;;;;;;;;;21.50;47.30;;;;;;5120445;27;19930;-42
2022/01/31 07:38:35;;;;;;;;;;;21.50;47.30;;;;;;5137155;27;19924;-42
2022/01/31 07:41:03;;;;;;;;;;;21.50;47.20;;;;;;5120179;27;19924;-44
2022/01/31 07:43:31;;;;;;;;;;;21.50;47.20;;;;;;5138410;27;20336;-46
2022/01/31 07:45:58;;;;;;;;;;;21.50;47.20;;;;;;5137246;27;19923;-46
2022/01/31 07:48:29;;;;;;;;;;;21.50;47.20;;;;;;5138372;27;20287;-40
2022/01/31 07:50:55;;;;;;;;;;;21.60;47.30;;;;;;5138044;27;19923;-45
2022/01/31 07:53:22;;;;;;;;;;;21.60;47.30;;;;;;5138535;27;19935;-43
2022/01/31 07:55:50;;;;;;;;;;;21.60;47.20;;;;;;5120583;27;19927;-43
2022/01/31 07:58:18;;;;;;;;;;;21.60;47.20;;;;;;5138355;27;19930;-41
2022/01/31 08:00:46;;;;;;;;;;;21.60;47.20;;;;;;5118874;27;19924;-41
2022/01/31 08:03:14;;;;;;;;;;;21.60;47.20;;;;;;5137676;27;20452;-48
2022/01/31 08:05:41;;;;;;;;;;;21.60;47.20;;;;;;5126584;27;20007;-43
2022/01/31 08:08:08;;;;;;;;;;;21.60;47.20;;;;;;5117917;28;19978;-43
2022/01/31 08:10:37;;;;;;;;;;;21.60;47.20;;;;;;5116933;28;19928;-45
2022/01/31 08:13:06;;;;;;;;;;;21.60;47.20;;;;;;5117408;28;19923;-40
2022/01/31 08:15:44;;;;;;;;;;;21.60;47.20;;;;;;5117618;27;19965;-43
2022/01/31 08:18:12;;;;;;;;;;;21.60;47.20;;;;;;5137830;27;19923;-44
2022/01/31 08:20:43;;;;;;;;;;;21.60;47.20;;;;;;5137230;27;19923;-41
2022/01/31 08:23:10;;;;;;;;;;;21.60;47.20;;;;;;5137072;27;19976;-41
2022/01/31 08:25:37;;;;;;;;;;;21.60;47.10;;;;;;5119365;27;19967;-40
2022/01/31 08:28:11;;;;;;;;;;;21.60;47.10;;;;;;5137101;27;19972;-46
2022/01/31 08:33:31;;;;;;;;;;;21.60;47.20;;;;;;5137011;27;19930;-45
2022/01/31 08:36:07;;;;;;;;;;;21.60;47.20;;;;;;5137460;27;20005;-41
2022/01/31 08:38:35;;;;;;;;;;;21.60;47.20;;;;;;5137369;27;20006;-42
2022/01/31 08:41:03;;;;;;;;;;;21.60;47.10;;;;;;5136975;27;19968;-43
2022/01/31 08:43:30;;;;;;;;;;;21.60;47.10;;;;;;5118727;27;19930;-41
2022/01/31 08:45:57;;;;;;;;;;;21.60;47.10;;;;;;5135755;27;19970;-41
2022/01/31 08:48:25;;;;;;;;;;;21.60;47.20;;;;;;5137171;27;19946;-44
2022/01/31 08:50:52;;;;;;;;;;;21.60;47.10;;;;;;5136770;27;19923;-41
2022/01/31 08:53:19;;;;;;;;;;;21.60;47.10;;;;;;5136652;27;19924;-40
2022/01/31 08:55:54;;;;;;;;;;;21.70;47.20;;;;;;5137207;27;19923;-40
2022/01/31 08:58:22;;;;;;;;;;;21.60;47.10;;;;;;5137177;27;19923;-40
2022/01/31 09:00:57;;;;;;;;;;;21.70;47.20;;;;;;5137028;27;19923;-40
2022/01/31 09:04:00;;;;;;;;;;;21.70;47.20;;;;;;5115974;28;20375;-42
2022/01/31 09:06:32;;;;;;;;;;;21.70;47.10;;;;;;5115689;27;19960;-46
2022/01/31 09:08:59;;;;;;;;;;;21.70;47.10;;;;;;5136441;27;19932;-42
2022/01/31 09:11:27;;;;;;;;;;;21.70;47.10;;;;;;5136655;27;19923;-42
2022/01/31 09:13:54;;;;;;;;;;;21.70;47.10;;;;;;5136659;27;19962;-43
2022/01/31 09:16:22;;;;;;;;;;;21.70;47.00;;;;;;5135536;27;20275;-43
2022/01/31 09:18:49;;;;;;;;;;;21.70;47.00;;;;;;5136577;27;20374;-42
2022/01/31 09:21:16;;;;;;;;;;;21.70;47.00;;;;;;5136621;27;19923;-46
2022/01/31 09:23:44;;;;;;;;;;;21.70;47.00;;;;;;5136494;27;20471;-44
2022/01/31 09:26:11;;;;;;;;;;;21.80;47.00;;;;;;5136527;27;20010;-45
2022/01/31 09:28:38;;;;;;;;;;;21.80;47.00;;;;;;5136046;27;19942;-40
2022/01/31 09:31:05;;;;;;;;;;;21.80;46.90;;;;;;5135776;27;20010;-44
2022/01/31 09:33:32;;;;;;;;;;;21.80;46.90;;;;;;5135136;27;20340;-43
2022/01/31 09:35:59;;;;;;;;;;;21.80;46.90;;;;;;5135913;27;20005;-43
2022/01/31 09:38:26;;;;;;;;;;;21.80;46.80;;;;;;5135844;27;19963;-45
2022/01/31 09:40:53;;;;;;;;;;;21.80;46.80;;;;;;5136165;27;19923;-41
2022/01/31 09:46:16;;;;;;;;;;;21.80;46.90;;;;;;5135495;27;20064;-44
2022/01/31 09:48:44;;;;;;;;;;;21.80;46.80;;;;;;5115582;27;20337;-43
2022/01/31 09:51:19;;;;;;;;;;;21.80;46.80;;;;;;5114960;28;19949;-43
2022/01/31 09:53:48;;;;;;;;;;;21.90;46.90;;;;;;5096985;28;19924;-43
2022/01/31 09:56:21;;;;;;;;;;;21.90;46.80;;;;;;5115240;28;19924;-45
2022/01/31 09:58:49;;;;;;;;;;;21.90;46.80;;;;;;5115239;28;19931;-43
2022/01/31 10:01:30;;;;;;;;;;;21.90;46.80;;;;;;5114792;28;19924;-42
2022/01/31 10:04:01;;;;;;;;;;;21.90;46.70;;;;;;5134237;27;19924;-43
2022/01/31 10:06:30;;;;;;;;;;;21.90;46.70;;;;;;5099682;28;20017;-44
2022/01/31 10:09:06;;;;;;;;;;;21.90;46.70;;;;;;5114696;28;20023;-43
2022/01/31 10:11:45;;;;;;;;;;;21.90;46.70;;;;;;5114638;28;19970;-42
2022/01/31 10:17:02;;;;;;;;;;;22.00;46.70;;;;;;5116502;27;20025;-42
2022/01/31 10:19:49;;;;;;;;;;;22.00;46.70;;;;;;5134913;27;19924;-44
2022/01/31 10:22:17;;;;;;;;;;;22.00;46.70;;;;;;5134881;27;19931;-42
2022/01/31 10:24:45;;;;;;;;;;;22.00;46.70;;;;;;5134931;27;19923;-42
2022/01/31 10:27:14;;;;;;;;;;;22.00;46.70;;;;;;5135203;27;20346;-44
2022/01/31 10:29:42;;;;;;;;;;;22.00;46.70;;;;;;5134784;27;19927;-42
2022/01/31 10:32:09;;;;;;;;;;;22.00;46.70;;;;;;5134159;27;20299;-45
2022/01/31 10:34:39;;;;;;;;;;;22.00;46.70;;;;;;5134860;27;19930;-45
2022/01/31 10:37:09;;;;;;;;;;;22.00;46.70;;;;;;5134917;27;19974;-42
2022/01/31 10:54:03;;;;;;;;;;;22.10;46.70;;;;;;5134774;27;20043;-41
2022/01/31 10:56:36;;;;;;;;;;;22.10;46.70;;;;;;5134564;27;19923;-44
2022/01/31 10:59:06;;;;;;;;;;;22.10;46.70;;;;;;5134415;27;19976;-42
2022/01/31 11:01:33;;;;;;;;;;;22.10;46.60;;;;;;5134785;27;20027;-45
2022/01/31 11:04:23;;;;;;;;;;;22.10;46.60;;;;;;5133408;27;19927;-42
2022/01/31 11:06:57;;;;;;;;;;;22.10;46.60;;;;;;5095822;28;20007;-42
2022/01/31 11:09:24;;;;;;;;;;;22.10;46.60;;;;;;5114209;28;19970;-41
2022/01/31 11:11:51;;;;;;;;;;;22.10;46.60;;;;;;5114197;28;19981;-40
2022/01/31 11:14:20;;;;;;;;;;;22.10;46.60;;;;;;5113800;28;19977;-43
2022/01/31 11:16:54;;;;;;;;;;;22.10;46.60;;;;;;5114194;28;20275;-42
2022/01/31 11:19:33;;;;;;;;;;;22.10;46.60;;;;;;5129548;28;19935;-42
2022/01/31 11:22:04;;;;;;;;;;;22.10;46.60;;;;;;5134390;28;19935;-41
2022/01/31 11:24:42;;;;;;;;;;;22.10;46.60;;;;;;5134639;28;19927;-41
2022/01/31 11:27:13;;;;;;;;;;;22.10;46.60;;;;;;5134531;28;20034;-43
2022/01/31 11:29:42;;;;;;;;;;;22.10;46.50;;;;;;5134094;28;19979;-47
2022/01/31 11:32:09;;;;;;;;;;;22.20;46.60;;;;;;5134569;28;20077;-41
2022/01/31 11:34:40;;;;;;;;;;;22.20;46.60;;;;;;5133460;28;19945;-41
2022/01/31 11:37:08;;;;;;;;;;;22.20;46.60;;;;;;5134232;28;19978;-41
2022/01/31 11:39:36;;;;;;;;;;;22.20;46.60;;;;;;5134143;28;20432;-43
2022/01/31 11:42:03;;;;;;;;;;;22.20;46.60;;;;;;5134166;28;19958;-40
2022/01/31 11:44:42;;;;;;;;;;;22.20;46.60;;;;;;5134106;28;20422;-41
2022/01/31 11:47:10;;;;;;;;;;;22.20;46.60;;;;;;5133937;28;19972;-42
2022/01/31 11:49:47;;;;;;;;;;;22.20;46.60;;;;;;5115011;28;19923;-42
2022/01/31 11:52:14;;;;;;;;;;;22.20;46.50;;;;;;5134207;28;20073;-44
2022/01/31 11:54:47;;;;;;;;;;;22.20;46.50;;;;;;5134307;28;19928;-42
2022/01/31 11:57:15;;;;;;;;;;;22.20;46.50;;;;;;5134009;28;19924;-40
2022/01/31 11:59:43;;;;;;;;;;;22.20;46.50;;;;;;5134386;28;20275;-41
2022/01/31 12:02:14;;;;;;;;;;;22.20;46.50;;;;;;5134294;28;20313;-41
2022/01/31 12:04:44;;;;;;;;;;;22.20;46.50;;;;;;5130211;28;20301;-40
2022/01/31 12:07:38;;;;;;;;;;;22.20;46.50;;;;;;5113620;28;19923;-44
2022/01/31 12:10:07;;;;;;;;;;;22.20;46.50;;;;;;5116442;28;19969;-42
2022/01/31 12:12:45;;;;;;;;;;;22.20;46.50;;;;;;5117386;28;19973;-44
2022/01/31 12:15:34;;;;;;;;;;;22.20;46.50;;;;;;5117892;28;19986;-42
2022/01/31 12:18:28;;;;;;;;;;;22.20;46.50;;;;;;5116594;28;20026;-41
2022/01/31 12:23:49;;;;;;;;;;;22.30;46.60;;;;;;5137228;27;19930;-40
2022/01/31 12:26:29;;;;;;;;;;;22.30;46.60;;;;;;5137598;27;19923;-41
2022/01/31 12:29:01;;;;;;;;;;;22.30;46.80;;;;;;5137204;27;19976;-43
2022/01/31 12:31:29;;;;;;;;;;;22.30;46.50;;;;;;5119382;27;20389;-40
2022/01/31 12:33:57;;;;;;;;;;;22.30;46.50;;;;;;5136349;27;19930;-41
2022/01/31 12:36:36;;;;;;;;;;;22.40;46.50;;;;;;5137504;27;20017;-41
2022/01/31 12:39:04;;;;;;;;;;;22.40;46.40;;;;;;5137157;27;20450;-42
2022/01/31 12:41:32;;;;;;;;;;;22.40;46.40;;;;;;5137103;27;20465;-42
2022/01/31 12:44:31;;;;;;;;;;;22.40;46.30;;;;;;5137324;27;19946;-40
2022/01/31 12:47:08;;;;;;;;;;;22.50;46.40;;;;;;5033749;28;19979;-43
2022/01/31 12:49:35;;;;;;;;;;;22.50;46.30;;;;;;5032953;28;19929;-40
2022/01/31 12:52:04;;;;;;;;;;;22.50;46.30;;;;;;5034363;28;20362;-39
2022/01/31 12:54:32;;;;;;;;;;;22.50;46.30;;;;;;5033729;28;19929;-42
2022/01/31 12:57:12;;;;;;;;;;;22.50;46.20;;;;;;5033813;28;19929;-41
2022/01/31 12:59:40;;;;;;;;;;;22.50;46.20;;;;;;5033554;28;20340;-43
2022/01/31 13:02:08;;;;;;;;;;;22.50;46.20;;;;;;5033541;28;20436;-42
2022/01/31 13:04:37;;;;;;;;;;;22.50;46.10;;;;;;5032463;28;19925;-40
2022/01/31 13:07:05;;;;;;;;;;;22.60;46.20;;;;;;5033378;28;20373;-45
2022/01/31 13:09:52;;;;;;;;;;;22.60;46.20;;;;;;5033536;28;20466;-44
2022/01/31 13:12:23;;;;;;;;;;;22.60;46.10;;;;;;5033939;28;20011;-48
2022/01/31 13:14:51;;;;;;;;;;;22.60;46.10;;;;;;5033360;28;19925;-44
2022/01/31 13:17:24;;;;;;;;;;;22.60;46.10;;;;;;5033503;28;20281;-43
2022/01/31 13:19:53;;;;;;;;;;;22.60;46.10;;;;;;5025037;28;19929;-43
2022/01/31 13:22:35;;;;;;;;;;;22.60;46.80;;;;;;5028008;28;20333;-42
2022/01/31 13:25:02;;;;;;;;;;;22.60;46.10;;;;;;5095616;28;19956;-44
2022/01/31 13:27:49;;;;;;;;;;;22.60;46.10;;;;;;5095393;28;19930;-48
2022/01/31 13:30:25;;;;;;;;;;;22.70;46.10;;;;;;5095045;28;20402;-46
2022/01/31 13:32:52;;;;;;;;;;;22.70;46.10;;;;;;5095090;28;19924;-41
2022/01/31 13:35:20;;;;;;;;;;;22.70;46.10;;;;;;5085617;28;20334;-45
2022/01/31 13:37:51;;;;;;;;;;;22.70;46.00;;;;;;5095279;28;19928;-43
2022/01/31 13:40:28;;;;;;;;;;;22.70;46.10;;;;;;5094929;28;19924;-40
2022/01/31 13:42:57;;;;;;;;;;;22.70;46.00;;;;;;5095268;28;19955;-43
2022/01/31 13:45:32;;;;;;;;;;;22.70;46.00;;;;;;5077149;28;20366;-42
2022/01/31 13:48:04;;;;;;;;;;;22.70;46.10;;;;;;5095110;28;20340;-40
2022/01/31 13:50:40;;;;;;;;;;;22.70;46.10;;;;;;5107110;28;20383;-44
2022/01/31 13:53:07;;;;;;;;;;;22.70;46.10;;;;;;5115270;28;20348;-40
2022/01/31 13:55:35;;;;;;;;;;;22.70;46.10;;;;;;5115052;28;19962;-39
2022/01/31 13:58:03;;;;;;;;;;;22.70;46.10;;;;;;5114966;28;19976;-39
2022/01/31 14:00:32;;;;;;;;;;;22.70;46.10;;;;;;5115009;28;19923;-40
2022/01/31 14:03:04;;;;;;;;;;;22.70;46.10;;;;;;5096951;28;19924;-44
2022/01/31 14:05:35;;;;;;;;;;;22.70;46.10;;;;;;5104291;28;19928;-44
2022/01/31 14:08:07;;;;;;;;;;;22.70;46.20;;;;;;5094393;28;20027;-41
2022/01/31 14:10:36;;;;;;;;;;;22.70;46.10;;;;;;5094461;28;20037;-40
2022/01/31 14:13:05;;;;;;;;;;;22.70;46.20;;;;;;5094693;28;19955;-40
2022/01/31 14:15:40;;;;;;;;;;;22.70;46.20;;;;;;5094336;28;19932;-41
2022/01/31 14:18:07;;;;;;;;;;;22.70;46.10;;;;;;5094638;28;19928;-41
2022/01/31 14:20:34;;;;;;;;;;;22.70;46.20;;;;;;5117215;27;19945;-44
2022/01/31 14:23:03;;;;;;;;;;;22.70;46.10;;;;;;5134894;27;19984;-39
2022/01/31 14:25:44;;;;;;;;;;;22.70;46.20;;;;;;5135041;27;19996;-40
2022/01/31 14:28:13;;;;;;;;;;;22.70;46.20;;;;;;5116687;27;20034;-41
2022/01/31 14:30:47;;;;;;;;;;;22.70;46.20;;;;;;5134839;27;19928;-40
2022/01/31 14:33:17;;;;;;;;;;;22.70;46.30;;;;;;5134662;27;19996;-43
2022/01/31 14:35:49;;;;;;;;;;;22.70;46.30;;;;;;5133789;27;19931;-41
2022/01/31 14:38:23;;;;;;;;;;;22.70;46.30;;;;;;5135086;27;19967;-42
2022/01/31 14:49:04;;;;;;;;;;;22.70;46.30;;;;;;5135597;27;19923;-44
2022/01/31 14:51:32;;;;;;;;;;;22.70;46.40;;;;;;5133296;27;19977;-43
2022/01/31 14:54:04;;;;;;;;;;;22.70;46.40;;;;;;5134579;27;20010;-40
2022/01/31 14:56:31;;;;;;;;;;;22.70;46.50;;;;;;5134651;27;20393;-41
2022/01/31 14:59:18;;;;;;;;;;;22.60;46.40;;;;;;5134445;27;19929;-41
2022/01/31 15:01:45;;;;;;;;;;;22.60;46.40;;;;;;5134841;27;19968;-41
2022/01/31 15:04:32;;;;;;;;;;;22.60;46.40;;;;;;5133179;27;20391;-41
2022/01/31 15:06:59;;;;;;;;;;;22.70;46.50;;;;;;5132012;28;19923;-41